createdAt,value
2019-02-22T00:01:57.238Z,29.70
2019-02-22T00:04:26.128Z,30.80
2019-02-22T00:06:54.451Z,30.30
2019-02-22T00:09:22.592Z,32.60
2019-02-22T00:11:51.452Z,33.80
2019-02-22T00:14:20.145Z,33.37
2019-02-22T00:16:48.223Z,33.03
2019-02-22T00:19:16.201Z,32.80
2019-02-22T00:21:44.265Z,31.23
2019-02-22T00:24:12.392Z,33.23
2019-02-22T00:26:40.931Z,34.83
2019-02-22T00:29:09.336Z,36.13
2019-02-22T00:31:37.371Z,36.23
2019-02-22T00:34:05.461Z,36.60
2019-02-22T00:36:34.079Z,35.67
2019-02-22T00:39:01.812Z,35.73
2019-02-22T00:41:30.076Z,35.70
2019-02-22T00:43:58.940Z,35.57
2019-02-22T00:46:27.604Z,36.53
2019-02-22T00:48:56.448Z,36.17
2019-02-22T00:51:24.806Z,36.60
2019-02-22T00:53:53.456Z,37.83
2019-02-22T00:56:22.792Z,36.37
2019-02-22T00:58:51.609Z,36.13
2019-02-22T01:01:19.314Z,34.60
2019-02-22T01:03:47.893Z,35.93
2019-02-22T01:06:15.900Z,37.53
2019-02-22T01:08:44.192Z,37.47
2019-02-22T01:11:12.576Z,36.47
2019-02-22T01:13:40.915Z,36.97
2019-02-22T01:16:09.438Z,36.67
2019-02-22T01:18:37.829Z,39.00
2019-02-22T01:21:05.912Z,40.23
2019-02-22T01:23:34.175Z,36.70
2019-02-22T01:26:01.872Z,38.10
2019-02-22T01:28:30.298Z,41.80
2019-02-22T01:30:58.891Z,37.27
2019-02-22T01:33:26.769Z,38.27
2019-02-22T01:35:55.162Z,39.83
2019-02-22T01:38:23.182Z,39.90
2019-02-22T01:40:51.029Z,38.80
2019-02-22T01:43:19.243Z,39.23
2019-02-22T01:45:47.308Z,41.67
2019-02-22T01:48:17.661Z,40.73
2019-02-22T01:50:45.622Z,40.93
2019-02-22T01:53:13.759Z,40.97
2019-02-22T01:55:41.447Z,42.60
2019-02-22T01:58:09.826Z,40.70
2019-02-22T02:00:37.944Z,40.33
2019-02-22T02:03:06.598Z,41.30
2019-02-22T02:05:34.921Z,41.60
2019-02-22T02:08:04.878Z,42.37
2019-02-22T02:10:32.955Z,43.40
2019-02-22T02:13:03.502Z,41.73
2019-02-22T02:15:32.150Z,45.70
2019-02-22T02:18:00.556Z,48.03
2019-02-22T02:20:29.082Z,42.53
2019-02-22T02:22:56.810Z,45.07
2019-02-22T02:25:24.864Z,41.87
2019-02-22T02:27:53.162Z,41.80
2019-02-22T02:30:20.754Z,44.00
2019-02-22T02:32:49.124Z,44.47
2019-02-22T02:35:17.148Z,42.80
2019-02-22T02:37:45.543Z,44.60
2019-02-22T02:40:14.433Z,45.63
2019-02-22T02:42:42.111Z,43.13
2019-02-22T02:45:10.843Z,39.77
2019-02-22T02:47:38.465Z,40.10
2019-02-22T02:50:06.211Z,42.93
2019-02-22T02:52:34.578Z,40.90
2019-02-22T02:55:02.267Z,40.57
2019-02-22T02:57:31.049Z,41.80
2019-02-22T02:59:59.014Z,42.80
2019-02-22T03:02:29.271Z,41.23
2019-02-22T03:04:58.048Z,41.70
2019-02-22T03:07:43.648Z,41.27
2019-02-22T03:10:12.713Z,41.40
2019-02-22T03:12:41.522Z,38.03
2019-02-22T03:15:10.813Z,40.07
2019-02-22T03:17:38.566Z,42.17
2019-02-22T03:20:08.551Z,40.80
2019-02-22T03:22:36.959Z,40.47
2019-02-22T03:25:05.559Z,41.40
2019-02-22T03:27:34.012Z,40.23
2019-02-22T03:30:02.331Z,41.90
2019-02-22T03:32:30.779Z,41.77
2019-02-22T03:34:59.880Z,39.00
2019-02-22T03:37:27.534Z,38.17
2019-02-22T03:39:54.860Z,39.27
2019-02-22T03:42:23.593Z,43.00
2019-02-22T03:44:51.877Z,42.67
2019-02-22T03:47:20.236Z,42.87
2019-02-22T03:49:51.086Z,40.43
2019-02-22T03:52:23.786Z,40.33
2019-02-22T03:54:51.371Z,40.37
2019-02-22T03:57:19.595Z,38.67
2019-02-22T03:59:50.943Z,39.67
2019-02-22T04:02:18.454Z,40.47
2019-02-22T04:04:47.366Z,36.73
2019-02-22T04:07:15.268Z,37.40
2019-02-22T04:09:43.681Z,39.50
2019-02-22T04:12:11.744Z,39.13
2019-02-22T04:14:39.792Z,37.03
2019-02-22T04:17:08.204Z,34.90
2019-02-22T04:19:39.019Z,33.50
2019-02-22T04:22:07.394Z,36.30
2019-02-22T04:24:35.776Z,32.70
2019-02-22T04:27:04.201Z,31.80
2019-02-22T04:29:31.462Z,33.70
2019-02-22T04:31:59.815Z,35.30
2019-02-22T04:34:28.154Z,32.70
2019-02-22T04:36:58.791Z,33.37
2019-02-22T04:39:26.504Z,34.73
2019-02-22T04:41:58.290Z,32.23
2019-02-22T04:44:25.670Z,30.07
2019-02-22T04:46:54.318Z,32.07
2019-02-22T04:49:22.720Z,35.20
2019-02-22T04:51:50.979Z,32.33
2019-02-22T04:54:19.965Z,32.93
2019-02-22T04:56:48.393Z,36.00
2019-02-22T04:59:16.394Z,33.10
2019-02-22T05:01:45.149Z,33.53
2019-02-22T05:04:13.537Z,34.27
2019-02-22T05:06:42.779Z,31.67
2019-02-22T05:09:11.524Z,31.20
2019-02-22T05:11:42.173Z,30.67
2019-02-22T05:14:10.404Z,32.93
2019-02-22T05:16:38.726Z,32.87
2019-02-22T05:19:06.797Z,31.00
2019-02-22T05:21:35.250Z,31.10
2019-02-22T05:24:03.243Z,30.80
2019-02-22T05:26:31.621Z,31.67
2019-02-22T05:28:59.989Z,31.23
2019-02-22T05:31:28.759Z,33.03
2019-02-22T05:33:57.027Z,29.03
2019-02-22T05:36:25.831Z,27.50
2019-02-22T05:38:53.889Z,27.67
2019-02-22T05:41:22.289Z,27.33
2019-02-22T05:43:50.691Z,28.13
2019-02-22T05:46:19.252Z,28.63
2019-02-22T05:48:47.515Z,27.50
2019-02-22T05:51:15.942Z,28.70
2019-02-22T05:53:43.579Z,28.80
2019-02-22T05:56:12.655Z,28.70
2019-02-22T05:58:41.103Z,30.13
2019-02-22T06:01:09.206Z,30.00
2019-02-22T06:03:36.968Z,27.03
2019-02-22T06:06:04.679Z,23.77
2019-02-22T06:08:33.133Z,21.63
2019-02-22T06:11:00.788Z,25.07
2019-02-22T06:13:28.980Z,21.70
2019-02-22T06:15:57.610Z,21.53
2019-02-22T06:18:25.653Z,20.43
2019-02-22T06:20:54.110Z,20.77
2019-02-22T06:23:21.764Z,21.07
2019-02-22T06:25:50.054Z,20.20
2019-02-22T06:28:18.414Z,18.27
2019-02-22T06:30:46.458Z,19.97
2019-02-22T06:33:14.533Z,19.03
2019-02-22T06:35:42.743Z,19.67
2019-02-22T06:38:10.796Z,19.43
2019-02-22T06:40:39.216Z,18.03
2019-02-22T06:43:08.118Z,19.00
2019-02-22T06:45:36.996Z,19.00
2019-02-22T06:48:05.241Z,18.23
2019-02-22T06:50:34.185Z,17.47
2019-02-22T06:53:01.994Z,17.03
2019-02-22T06:55:30.343Z,14.00
2019-02-22T06:57:58.457Z,16.23
2019-02-22T07:00:26.542Z,16.20
2019-02-22T07:02:54.910Z,14.40
2019-02-22T07:05:23.068Z,16.90
2019-02-22T07:07:50.741Z,16.67
2019-02-22T07:10:18.828Z,15.13
2019-02-22T07:13:01.324Z,15.63
2019-02-22T07:15:29.617Z,14.80
2019-02-22T07:17:57.995Z,15.53
2019-02-22T07:20:26.390Z,15.57
2019-02-22T07:22:54.467Z,16.00
2019-02-22T07:25:23.136Z,15.77
2019-02-22T07:27:51.407Z,15.13
2019-02-22T07:30:19.113Z,14.80
2019-02-22T07:32:47.002Z,12.37
2019-02-22T07:35:15.430Z,14.43
2019-02-22T07:37:43.516Z,14.70
2019-02-22T07:40:11.632Z,13.00
2019-02-22T07:42:40.045Z,14.03
2019-02-22T07:45:18.214Z,14.30
2019-02-22T07:47:46.535Z,12.30
2019-02-22T07:50:14.909Z,13.87
2019-02-22T07:52:45.225Z,13.87
2019-02-22T07:55:12.701Z,12.63
2019-02-22T07:57:40.665Z,12.83
2019-02-22T08:00:11.202Z,12.50
2019-02-22T08:02:39.588Z,12.73
2019-02-22T08:05:09.206Z,10.90
2019-02-22T08:07:38.686Z,9.80
2019-02-22T08:10:06.881Z,9.73
2019-02-22T08:12:36.065Z,9.80
2019-02-22T08:15:04.243Z,9.40
2019-02-22T08:17:32.143Z,9.13
2019-02-22T08:20:00.330Z,9.47
2019-02-22T08:22:28.669Z,9.00
2019-02-22T08:24:57.563Z,8.70
2019-02-22T08:27:25.362Z,8.47
2019-02-22T08:29:53.703Z,9.40
2019-02-22T08:32:21.813Z,8.10
2019-02-22T08:34:49.830Z,8.83
2019-02-22T08:37:17.459Z,7.33
2019-02-22T08:39:57.470Z,6.93
2019-02-22T08:42:15.720Z,7.10
2019-02-22T08:44:44.079Z,8.90
2019-02-22T08:47:12.873Z,7.50
2019-02-22T08:49:40.832Z,6.80
2019-02-22T08:52:09.232Z,6.50
2019-02-22T08:54:46.694Z,6.70
2019-02-22T08:57:07.008Z,5.23
2019-02-22T08:59:35.381Z,5.73
2019-02-22T09:02:03.783Z,5.67
2019-02-22T09:04:31.952Z,6.23
2019-02-22T09:06:59.329Z,4.83
2019-02-22T09:09:27.859Z,6.10
2019-02-22T09:11:57.752Z,4.60
2019-02-22T09:14:26.076Z,5.13
2019-02-22T09:16:54.143Z,4.53
2019-02-22T09:19:21.771Z,4.17
2019-02-22T09:21:49.532Z,4.20
2019-02-22T09:24:17.376Z,3.50
2019-02-22T09:26:45.800Z,2.73
2019-02-22T09:29:14.097Z,2.80
2019-02-22T09:31:42.890Z,2.40
2019-02-22T09:34:11.748Z,3.10
2019-02-22T09:36:40.060Z,3.47
2019-02-22T09:39:08.207Z,3.13
2019-02-22T09:41:38.773Z,3.37
2019-02-22T09:44:06.967Z,2.40
2019-02-22T09:46:35.639Z,3.03
2019-02-22T09:49:03.324Z,3.03
2019-02-22T09:51:30.660Z,3.20
2019-02-22T09:53:59.114Z,3.23
2019-02-22T09:56:26.735Z,4.30
2019-02-22T09:58:55.651Z,3.43
2019-02-22T10:01:23.587Z,3.37
2019-02-22T10:03:52.067Z,2.83
2019-02-22T10:06:20.603Z,3.30
2019-02-22T10:08:49.172Z,3.87
2019-02-22T10:11:17.195Z,4.30
2019-02-22T10:13:45.131Z,4.10
2019-02-22T10:16:14.220Z,3.70
2019-02-22T10:18:49.667Z,3.60
2019-02-22T10:21:20.069Z,3.80
2019-02-22T10:23:48.565Z,4.50
2019-02-22T10:26:16.769Z,3.87
2019-02-22T10:28:45.470Z,3.67
2019-02-22T10:31:13.471Z,3.97
2019-02-22T10:33:41.555Z,3.63
2019-02-22T10:36:09.896Z,2.90
2019-02-22T10:38:38.219Z,2.90
2019-02-22T10:41:07.573Z,3.10
2019-02-22T10:43:36.154Z,1.70
2019-02-22T10:46:04.554Z,2.00
2019-02-22T10:48:33.371Z,1.80
2019-02-22T10:51:00.734Z,1.67
2019-02-22T10:53:30.242Z,3.33
2019-02-22T10:55:58.122Z,1.90
2019-02-22T10:58:26.296Z,2.40
2019-02-22T11:00:55.395Z,2.63
2019-02-22T11:03:25.013Z,2.60
2019-02-22T11:05:54.791Z,3.10
2019-02-22T11:08:23.192Z,2.80
2019-02-22T11:10:53.106Z,3.00
2019-02-22T11:13:24.584Z,2.43
2019-02-22T11:15:52.244Z,2.70
2019-02-22T11:18:20.271Z,2.00
2019-02-22T11:20:48.070Z,3.10
2019-02-22T11:23:16.748Z,2.40
2019-02-22T11:25:45.681Z,2.57
2019-02-22T11:28:13.914Z,3.00
2019-02-22T11:30:42.407Z,3.53
2019-02-22T11:33:09.871Z,2.70
2019-02-22T11:35:38.635Z,2.47
2019-02-22T11:38:07.033Z,2.77
2019-02-22T11:40:35.905Z,2.40
2019-02-22T11:43:03.839Z,2.23
2019-02-22T11:45:31.755Z,2.40
2019-02-22T11:48:08.814Z,1.60
2019-02-22T11:50:30.958Z,2.13
2019-02-22T11:52:59.762Z,1.90
2019-02-22T11:55:28.291Z,1.67
2019-02-22T11:57:56.822Z,1.67
2019-02-22T12:00:25.928Z,1.63
2019-02-22T12:02:54.303Z,1.43
2019-02-22T12:05:23.071Z,2.23
2019-02-22T12:07:51.373Z,1.60
2019-02-22T12:10:19.601Z,1.70
2019-02-22T12:12:48.218Z,1.67
2019-02-22T12:15:16.192Z,1.83
2019-02-22T12:17:45.019Z,1.70
2019-02-22T12:20:13.275Z,1.57
2019-02-22T12:22:41.397Z,1.83
2019-02-22T12:25:08.809Z,2.10
2019-02-22T12:27:37.469Z,1.13
2019-02-22T12:30:07.353Z,1.83
2019-02-22T12:32:39.573Z,1.77
2019-02-22T12:35:07.852Z,2.33
2019-02-22T12:37:36.027Z,1.30
2019-02-22T12:40:04.691Z,1.97
2019-02-22T12:42:33.456Z,1.70
2019-02-22T12:45:03.228Z,1.93
2019-02-22T12:47:32.102Z,1.50
2019-02-22T12:49:59.798Z,1.50
2019-02-22T12:52:28.223Z,1.77
2019-02-22T12:54:56.592Z,1.30
2019-02-22T12:57:24.567Z,1.53
2019-02-22T12:59:53.178Z,1.97
2019-02-22T13:02:22.123Z,2.70
2019-02-22T13:04:51.023Z,2.73
2019-02-22T13:07:18.338Z,3.03
2019-02-22T13:09:46.507Z,2.60
2019-02-22T13:12:17.327Z,3.00
2019-02-22T13:14:44.883Z,3.07
2019-02-22T13:17:13.254Z,3.17
2019-02-22T13:19:41.832Z,2.80
2019-02-22T13:22:09.931Z,3.50
2019-02-22T13:24:42.511Z,3.77
2019-02-22T13:27:11.320Z,3.83
2019-02-22T13:29:39.489Z,3.33
2019-02-22T13:32:08.540Z,3.20
2019-02-22T13:34:35.905Z,3.40
2019-02-22T13:37:04.253Z,3.60
2019-02-22T13:39:36.500Z,3.93
2019-02-22T13:42:05.307Z,3.83
2019-02-22T13:44:36.184Z,3.17
2019-02-22T13:47:05.119Z,4.10
2019-02-22T13:49:33.582Z,3.70
2019-02-22T13:52:02.083Z,3.57
2019-02-22T13:54:30.844Z,3.10
2019-02-22T13:57:00.272Z,4.73
2019-02-22T13:59:28.311Z,3.73
2019-02-22T14:01:58.721Z,4.37
2019-02-22T14:04:27.024Z,3.40
2019-02-22T14:06:55.739Z,3.70
2019-02-22T14:09:24.564Z,4.13
2019-02-22T14:11:53.171Z,3.83
2019-02-22T14:14:21.143Z,3.63
2019-02-22T14:16:50.177Z,3.97
2019-02-22T14:19:18.330Z,4.10
2019-02-22T14:21:46.283Z,5.23
2019-02-22T14:24:14.579Z,3.70
2019-02-22T14:26:42.560Z,4.70
2019-02-22T14:29:11.238Z,4.23
2019-02-22T14:31:40.288Z,4.47
2019-02-22T14:34:08.794Z,3.90
2019-02-22T14:36:37.386Z,3.80
2019-02-22T14:39:06.540Z,4.37
2019-02-22T14:41:37.361Z,3.97
2019-02-22T14:44:05.494Z,4.50
2019-02-22T14:46:33.455Z,4.13
2019-02-22T14:49:01.493Z,3.97
2019-02-22T14:51:29.154Z,4.00
2019-02-22T14:53:57.558Z,4.07
2019-02-22T14:56:25.681Z,5.03
2019-02-22T14:58:53.728Z,4.47
2019-02-22T15:01:22.190Z,4.63
2019-02-22T15:03:50.160Z,4.53
2019-02-22T15:06:18.671Z,4.90
2019-02-22T15:08:47.632Z,4.90
2019-02-22T15:11:15.821Z,5.17
2019-02-22T15:13:44.696Z,5.03
2019-02-22T15:16:25.093Z,4.70
2019-02-22T15:18:53.164Z,4.90
2019-02-22T15:21:21.576Z,4.73
2019-02-22T15:23:49.902Z,5.07
2019-02-22T15:26:18.312Z,4.27
2019-02-22T15:28:46.065Z,4.57
2019-02-22T15:31:14.466Z,5.00
2019-02-22T15:33:42.638Z,4.23
2019-02-22T15:36:10.929Z,4.10
2019-02-22T15:38:38.761Z,4.77
2019-02-22T15:41:06.438Z,4.10
2019-02-22T15:43:33.776Z,4.03
2019-02-22T15:46:11.804Z,5.00
2019-02-22T15:48:32.424Z,4.07
2019-02-22T15:51:00.743Z,4.00
2019-02-22T15:53:28.849Z,5.47
2019-02-22T15:55:57.682Z,4.30
2019-02-22T15:58:26.110Z,4.70
2019-02-22T16:00:55.639Z,4.43
2019-02-22T16:03:24.072Z,4.60
2019-02-22T16:05:52.440Z,5.30
2019-02-22T16:08:20.504Z,4.67
2019-02-22T16:10:48.955Z,4.87
2019-02-22T16:13:17.490Z,4.70
2019-02-22T16:15:45.936Z,4.97
2019-02-22T16:18:13.790Z,5.00
2019-02-22T16:20:42.330Z,3.97
2019-02-22T16:23:10.092Z,4.73
2019-02-22T16:25:38.566Z,5.43
2019-02-22T16:28:06.552Z,5.00
2019-02-22T16:30:35.636Z,4.90
2019-02-22T16:33:04.796Z,4.67
2019-02-22T16:35:34.535Z,4.27
2019-02-22T16:38:02.630Z,6.43
2019-02-22T16:40:31.132Z,4.47
2019-02-22T16:43:00.281Z,4.97
2019-02-22T16:45:29.218Z,4.90
2019-02-22T16:47:57.581Z,4.70
2019-02-22T16:50:25.943Z,4.70
2019-02-22T16:52:53.975Z,5.07
2019-02-22T16:55:22.704Z,5.40
2019-02-22T16:57:51.303Z,5.17
2019-02-22T17:00:20.165Z,5.80
2019-02-22T17:02:48.369Z,4.77
2019-02-22T17:05:16.542Z,4.93
2019-02-22T17:07:44.687Z,5.40
2019-02-22T17:10:15.345Z,5.50
2019-02-22T17:12:44.677Z,5.80
2019-02-22T17:15:13.351Z,5.53
2019-02-22T17:17:41.693Z,5.57
2019-02-22T17:20:10.606Z,6.33
2019-02-22T17:22:39.499Z,5.50
2019-02-22T17:25:09.284Z,4.83
2019-02-22T17:27:37.885Z,6.17
2019-02-22T17:30:06.906Z,6.03
2019-02-22T17:32:35.564Z,8.00
2019-02-22T17:35:03.716Z,6.47
2019-02-22T17:37:32.071Z,6.50
2019-02-22T17:40:00.290Z,7.53
2019-02-22T17:42:29.400Z,6.67
2019-02-22T17:44:57.365Z,8.57
2019-02-22T17:47:26.248Z,9.30
2019-02-22T17:49:54.351Z,11.63
2019-02-22T17:52:23.357Z,9.60
2019-02-22T17:54:52.235Z,9.17
2019-02-22T17:57:20.694Z,8.77
2019-02-22T17:59:49.453Z,7.73
2019-02-22T18:02:19.896Z,7.17
2019-02-22T18:04:48.292Z,5.87
2019-02-22T18:07:16.873Z,7.03
2019-02-22T18:09:44.555Z,6.43
2019-02-22T18:12:12.937Z,6.10
2019-02-22T18:14:41.973Z,6.47
2019-02-22T18:17:10.117Z,6.30
2019-02-22T18:19:38.621Z,5.67
2019-02-22T18:22:06.866Z,5.20
2019-02-22T18:24:35.222Z,5.57
2019-02-22T18:27:02.993Z,6.23
2019-02-22T18:29:35.482Z,5.23
2019-02-22T18:32:00.691Z,5.30
2019-02-22T18:34:28.770Z,5.70
2019-02-22T18:36:57.648Z,5.10
2019-02-22T18:39:25.709Z,5.10
2019-02-22T18:41:54.421Z,5.47
2019-02-22T18:44:22.055Z,5.53
2019-02-22T18:46:53.753Z,5.40
2019-02-22T18:49:23.164Z,6.50
2019-02-22T18:51:51.557Z,6.57
2019-02-22T18:54:20.823Z,5.70
2019-02-22T18:56:49.276Z,5.80
2019-02-22T18:59:17.575Z,5.90
2019-02-22T19:01:46.646Z,5.13
2019-02-22T19:04:15.426Z,6.10
2019-02-22T19:06:43.644Z,6.10
2019-02-22T19:09:12.619Z,6.57
2019-02-22T19:11:41.112Z,5.83
2019-02-22T19:14:09.990Z,7.53
2019-02-22T19:16:38.769Z,6.23
2019-02-22T19:19:07.505Z,7.90
2019-02-22T19:21:36.421Z,7.10
2019-02-22T19:24:04.934Z,6.20
2019-02-22T19:26:32.375Z,5.83
2019-02-22T19:29:01.003Z,6.47
2019-02-22T19:31:29.577Z,6.20
2019-02-22T19:33:58.274Z,5.93
2019-02-22T19:36:27.855Z,6.17
2019-02-22T19:38:57.807Z,6.70
2019-02-22T19:41:26.276Z,6.30
2019-02-22T19:43:54.629Z,7.27
2019-02-22T19:46:25.694Z,8.20
2019-02-22T19:48:53.387Z,7.70
2019-02-22T19:51:24.704Z,7.00
2019-02-22T19:53:52.450Z,7.50
2019-02-22T19:56:21.026Z,8.33
2019-02-22T19:58:49.349Z,9.20
2019-02-22T20:01:17.413Z,9.00
2019-02-22T20:03:45.553Z,7.43
2019-02-22T20:06:14.644Z,7.20
2019-02-22T20:08:44.439Z,7.17
2019-02-22T20:11:12.145Z,8.77
2019-02-22T20:13:40.735Z,7.47
2019-02-22T20:16:08.799Z,7.87
2019-02-22T20:18:36.552Z,7.10
2019-02-22T20:21:04.843Z,7.07
2019-02-22T20:23:33.384Z,7.00
2019-02-22T20:26:01.287Z,6.00
2019-02-22T20:28:29.816Z,7.03
2019-02-22T20:30:58.223Z,6.90
2019-02-22T20:33:26.372Z,6.40
2019-02-22T20:35:54.703Z,7.57
2019-02-22T20:38:23.245Z,6.90
2019-02-22T20:40:50.950Z,6.53
2019-02-22T20:43:19.743Z,6.43
2019-02-22T20:45:47.771Z,6.37
2019-02-22T20:48:15.879Z,7.30
2019-02-22T20:50:45.955Z,7.47
2019-02-22T20:53:14.489Z,8.20
2019-02-22T20:55:42.337Z,7.00
2019-02-22T20:58:10.700Z,8.00
2019-02-22T21:00:38.952Z,5.73
2019-02-22T21:03:07.585Z,7.37
2019-02-22T21:05:35.708Z,7.73
2019-02-22T21:08:04.042Z,6.80
2019-02-22T21:10:32.144Z,6.73
2019-02-22T21:13:00.133Z,8.20
2019-02-22T21:15:28.424Z,6.67
2019-02-22T21:17:56.014Z,6.63
2019-02-22T21:20:24.007Z,7.23
2019-02-22T21:22:52.376Z,6.50
2019-02-22T21:25:20.773Z,6.23
2019-02-22T21:27:49.526Z,7.07
2019-02-22T21:30:17.695Z,7.13
2019-02-22T21:32:46.391Z,7.00
2019-02-22T21:35:14.499Z,6.67
2019-02-22T21:37:42.121Z,6.40
2019-02-22T21:40:10.640Z,7.50
2019-02-22T21:42:39.016Z,7.50
2019-02-22T21:45:07.520Z,8.40
2019-02-22T21:47:35.962Z,7.70
2019-02-22T21:50:04.129Z,8.57
2019-02-22T21:52:31.876Z,8.07
2019-02-22T21:54:59.543Z,7.67
2019-02-22T21:57:27.585Z,8.40
2019-02-22T21:59:55.737Z,9.20
2019-02-22T22:02:24.562Z,9.00
2019-02-22T22:04:52.369Z,6.60
2019-02-22T22:07:21.261Z,7.20
2019-02-22T22:09:49.314Z,6.30
2019-02-22T22:12:18.115Z,6.70
2019-02-22T22:14:46.143Z,6.63
2019-02-22T22:17:18.710Z,5.73
2019-02-22T22:19:46.741Z,6.30
2019-02-22T22:22:15.562Z,6.73
2019-02-22T22:24:43.898Z,5.33
2019-02-22T22:27:12.288Z,5.80
2019-02-22T22:29:40.369Z,6.13
2019-02-22T22:32:08.434Z,5.93
2019-02-22T22:34:37.211Z,5.50
2019-02-22T22:37:04.885Z,5.70
2019-02-22T22:39:35.607Z,6.17
2019-02-22T22:42:03.175Z,5.83
2019-02-22T22:44:31.535Z,5.60
2019-02-22T22:47:00.362Z,5.73
2019-02-22T22:49:28.451Z,6.00
2019-02-22T22:51:56.495Z,6.27
2019-02-22T22:54:24.947Z,6.30
2019-02-22T22:56:53.659Z,6.00
2019-02-22T22:59:22.000Z,5.53
2019-02-22T23:01:49.718Z,6.07
2019-02-22T23:04:18.469Z,6.40
2019-02-22T23:06:47.067Z,5.80
2019-02-22T23:09:19.338Z,6.20
2019-02-22T23:11:47.208Z,7.00
2019-02-22T23:14:15.166Z,5.30
2019-02-22T23:16:43.247Z,6.10
2019-02-22T23:19:11.663Z,6.07
2019-02-22T23:21:42.364Z,6.07
2019-02-22T23:24:10.515Z,6.50
2019-02-22T23:26:39.335Z,6.83
2019-02-22T23:29:07.864Z,5.87
2019-02-22T23:31:35.539Z,6.40
2019-02-22T23:34:03.963Z,6.90
2019-02-22T23:36:32.008Z,7.63
2019-02-22T23:39:00.399Z,5.77
2019-02-22T23:41:28.764Z,6.27
2019-02-22T23:43:56.344Z,6.30
2019-02-22T23:46:24.426Z,6.30
2019-02-22T23:48:52.152Z,7.00
2019-02-22T23:51:20.985Z,6.07
2019-02-22T23:53:48.759Z,5.97
2019-02-22T23:56:17.203Z,6.43
2019-02-22T23:58:45.869Z,6.87
